Mont Saint Michel — FNMT — position and weather

sailwx.info

Track history (hours):
 
Tides and Currents Weather Stations Pressure Air Temp Water Temp Dewpoint Dewpoint Depression Visibility Wind Speed Wind Dir Waves Ship Positions

Mont Saint Michel

Last reported at 2017-Mar-23 10:03 UTC. Time now 2017-Mar-23 12:17 UTC.
Position N 50°04' W 000°37'.

Length 173 m; beam 29 m.

Type: Ship. MMSI: 227023100.

Date/timePositionNaut miles runAvg speedWind from/ knotsBaromVisibWave heightAir tempDewpointWater temp
2017-Mar-23 10:03N 50°04' W 000°37'1121.2
2017-Mar-23 09:33N 49°55' W 000°30'2120.7
2017-Mar-23 08:33N 49°35' W 000°21'1818.1
2017-Mar-23 07:34N 49°17' W 000°15'0 0.0
2017-Mar-23 06:33N 49°17' W 000°15'0 0.1
2017-Mar-23 05:34N 49°17' W 000°15'1514.7
2017-Mar-23 04:34N 49°32' W 000°20'1616.2
2017-Mar-23 03:33N 49°47' W 000°28'5714.2
2017-Mar-22 23:33N 50°40' W 000°58'10 9.9
2017-Mar-22 22:34N 50°49' W 001°06'0 0.1
2017-Mar-22 21:33N 50°49' W 001°06'0 0.0
2017-Mar-22 20:33N 50°49' W 001°06'0 0.0
2017-Mar-22 19:33N 50°49' W 001°06'4 4.4
2017-Mar-22 18:34N 50°44' W 001°04'5217.5
2017-Mar-22 15:33N 49°57' W 000°31'1818.2
2017-Mar-22 14:34N 49°39' W 000°23'2019.6
2017-Mar-22 13:33N 49°20' W 000°14'3 3.1
2017-Mar-22 12:33N 49°17' W 000°15'0 0.0
2017-Mar-22 11:33N 49°17' W 000°15'0 0.0
2017-Mar-22 10:33N 49°17' W 000°15'0 0.0
2017-Mar-22 09:33N 49°17' W 000°15'0 0.0
2017-Mar-22 08:33N 49°17' W 000°15'0 0.0
2017-Mar-22 07:33N 49°17' W 000°15'0 0.0
2017-Mar-22 06:33N 49°17' W 000°15'10 9.6
2017-Mar-22 05:33N 49°27' W 000°17'1313.4
2017-Mar-22 04:34N 49°40' W 000°24'1413.5
2017-Mar-22 03:33N 49°52' W 000°32'4813.6
2017-Mar-22 00:04N 50°37' W 000°57'714.0
2017-Mar-21 23:33N 50°43' W 001°01'6 6.1
2017-Mar-21 22:33N 50°49' W 001°06'0 0.0
2017-Mar-21 21:33N 50°49' W 001°06'4 3.9
2017-Mar-21 20:34N 50°45' W 001°05'4517.9
2017-Mar-21 18:03N 50°04' W 000°37'919.0
2017-Mar-21 17:33N 49°55' W 000°33'1919.0
2017-Mar-21 16:33N 49°37' W 000°23'1818.3
2017-Mar-21 15:33N 49°19' W 000°14'2 2.0
2017-Mar-21 14:34N 49°17' W 000°15'1 0.8
2017-Mar-21 13:33N 49°18' W 000°15'1918.7
2017-Mar-21 12:33N 49°36' W 000°23'6419.7
2017-Mar-21 09:19N 50°36' W 000°57'1115.2
2017-Mar-21 08:34N 50°46' W 001°05'3 2.7
2017-Mar-21 07:33N 50°49' W 001°06'0 0.0
2017-Mar-21 06:33N 50°49' W 001°06'5012.4
2017-Mar-21 02:33N 50°02' W 000°39'1010.3
2017-Mar-21 01:33N 49°52' W 000°34'1110.9
2017-Mar-21 00:33N 49°42' W 000°27'1111.4
2017-Mar-20 23:33N 49°32' W 000°22'1110.6
2017-Mar-20 22:33N 49°22' W 000°15'5 4.6
2017-Mar-20 21:33N 49°17' W 000°15'0 0.0
2017-Mar-20 20:33N 49°17' W 000°15'1110.8
2017-Mar-20 19:33N 49°28' W 000°15'1919.0
2017-Mar-20 18:33N 49°46' W 000°26'5618.6
2017-Mar-20 15:32N 50°38' W 000°59'1211.9
2017-Mar-20 14:33N 50°49' W 001°06'0 0.0
2017-Mar-20 13:33N 50°49' W 001°06'3 3.4
2017-Mar-20 12:34N 50°45' W 001°05'5618.8
2017-Mar-20 09:33N 49°52' W 000°38'2120.6
2017-Mar-20 08:34N 49°33' W 000°24'1717.1
2017-Mar-20 07:33N 49°17' W 000°15'0 0.0
2017-Mar-20 06:34N 49°17' W 000°15'0 0.1
2017-Mar-20 05:34N 49°17' W 000°15'1413.7
2017-Mar-20 04:34N 49°31' W 000°19'1413.9
2017-Mar-20 03:33N 49°44' W 000°23'1413.6
2017-Mar-20 02:33N 49°58' W 000°25'5016.6
2017-Mar-19 23:33N 50°43' W 000°59'7 7.3
2017-Mar-19 22:33N 50°49' W 001°06'0 0.0
2017-Mar-19 21:33N 50°49' W 001°06'6 6.5
2017-Mar-19 20:33N 50°43' W 001°01'3816.9
2017-Mar-19 18:17N 50°07' W 000°42'1419.0
2017-Mar-19 17:34N 49°54' W 000°34'1919.3
2017-Mar-19 16:34N 49°36' W 000°23'1818.4
2017-Mar-19 15:33N 49°18' W 000°15'1 1.1
2017-Mar-19 14:33N 49°17' W 000°15'2 1.9
2017-Mar-19 13:33N 49°19' W 000°15'1918.8
2017-Mar-19 12:33N 49°37' W 000°23'1918.9
2017-Mar-19 11:33N 49°54' W 000°35'4319.7
2017-Mar-19 09:23N 50°35' W 000°56'1416.9
2017-Mar-19 08:34N 50°47' W 001°07'2 1.5
2017-Mar-19 07:34N 50°49' W 001°06'0 0.1
2017-Mar-19 06:33N 50°49' W 001°06'5914.3
2017-Mar-19 02:27N 49°50' W 001°04'1412.3
2017-Mar-19 01:20N 49°40' W 000°50'1012.4
2017-Mar-19 00:34N 49°34' W 000°38'9 9.4
2017-Mar-18 23:34N 49°28' W 000°27'9 9.4
2017-Mar-18 22:34N 49°22' W 000°16'5 4.6
2017-Mar-18 21:33N 49°17' W 000°15'0 0.0
2017-Mar-18 20:33N 49°17' W 000°15'1110.6
2017-Mar-18 19:34N 49°28' W 000°16'2019.6
2017-Mar-18 18:34N 49°46' W 000°28'5418.0
2017-Mar-18 15:33N 50°36' W 000°58'1313.3
2017-Mar-18 14:33N 50°49' W 001°06'0 0.0
2017-Mar-18 13:33N 50°49' W 001°06'7 7.5
2017-Mar-18 12:34N 50°42' W 001°01'4218.9
2017-Mar-18 10:19N 50°02' W 000°39'1417.8
2017-Mar-18 09:33N 49°49' W 000°33'1918.5
2017-Mar-18 08:33N 49°32' W 000°23'1515.3
2017-Mar-18 07:33N 49°17' W 000°15'0 0.0
2017-Mar-18 06:33N 49°17' W 000°15'0 0.1
2017-Mar-18 05:33N 49°17' W 000°15'1514.8
2017-Mar-18 04:33N 49°32' W 000°18'1515.2
2017-Mar-18 03:33N 49°47' W 000°19'1414.4
2017-Mar-18 02:33N 50°01' W 000°23'4017.5
2017-Mar-18 00:16N 50°35' W 000°56'1116.0
2017-Mar-17 23:33N 50°45' W 001°05'4 3.7
2017-Mar-17 22:33N 50°49' W 001°06'0 0.0
2017-Mar-17 21:33N 50°49' W 001°06'7 7.4
2017-Mar-17 20:33N 50°43' W 000°59'5217.3
2017-Mar-17 17:33N 49°54' W 000°31'1919.5
2017-Mar-17 16:33N 49°36' W 000°21'1818.3
2017-Mar-17 15:33N 49°18' W 000°15'0 0.5
2017-Mar-17 14:33N 49°17' W 000°15'4 4.3
2017-Mar-17 13:33N 49°22' W 000°14'2121.5
2017-Mar-17 12:33N 49°42' W 000°26'6421.2
2017-Mar-17 09:33N 50°42' W 000°58'8 8.3
2017-Mar-17 08:33N 50°49' W 001°06'0 0.0
2017-Mar-17 07:33N 50°49' W 001°06'1 0.9
2017-Mar-17 06:33N 50°48' W 001°07'4911.8
2017-Mar-17 02:27N 50°04' W 000°37'1011.1
2017-Mar-17 01:33N 49°55' W 000°31'1111.3
2017-Mar-17 00:33N 49°44' W 000°25'1111.0
2017-Mar-16 23:33N 49°33' W 000°21'1111.0
2017-Mar-16 22:33N 49°23' W 000°15'6 5.5
2017-Mar-16 21:33N 49°17' W 000°15'0 0.0
2017-Mar-16 20:33N 49°17' W 000°15'1111.1
2017-Mar-16 19:34N 49°28' W 000°16'2020.1
2017-Mar-16 18:33N 49°47' W 000°27'2019.6
2017-Mar-16 17:34N 50°05' W 000°40'3919.7
2017-Mar-16 15:34N 50°42' W 001°01'7 7.2
2017-Mar-16 14:33N 50°49' W 001°06'0 0.0
2017-Mar-16 13:33N 50°49' W 001°06'5 5.2
2017-Mar-16 12:33N 50°44' W 001°03'2919.5
2017-Mar-16 11:05N 50°18' W 000°44'1120.4
2017-Mar-16 10:33N 50°07' W 000°40'2019.8
2017-Mar-16 09:33N 49°48' W 000°32'2019.6
2017-Mar-16 08:33N 49°30' W 000°21'1313.3
2017-Mar-16 07:33N 49°17' W 000°15'0 0.0
2017-Mar-16 06:34N 49°17' W 000°15'0 0.1
2017-Mar-16 05:33N 49°17' W 000°15'1413.7
2017-Mar-16 04:33N 49°31' W 000°20'1514.8
2017-Mar-16 03:33N 49°44' W 000°29'1914.7
2017-Mar-16 02:15N 50°02' W 000°41'4115.3
2017-Mar-15 23:34N 50°42' W 000°58'9 8.8
2017-Mar-15 22:34N 50°49' W 001°06'0 0.3
2017-Mar-15 21:33N 50°49' W 001°06'0 0.0
2017-Mar-15 20:34N 50°49' W 001°06'0 0.0
2017-Mar-15 19:34N 50°49' W 001°06'3 2.9
2017-Mar-15 18:33N 50°46' W 001°05'3718.2
2017-Mar-15 16:30N 50°11' W 000°44'1717.3
2017-Mar-15 15:33N 49°55' W 000°35'1717.5
2017-Mar-15 14:33N 49°39' W 000°26'1716.8
2017-Mar-15 13:33N 49°24' W 000°16'6 6.4
2017-Mar-15 12:33N 49°17' W 000°15'0 0.0
2017-Mar-15 11:34N 49°17' W 000°15'0 0.0
2017-Mar-15 10:34N 49°17' W 000°15'0 0.0
2017-Mar-15 09:34N 49°17' W 000°15'0 0.0
2017-Mar-15 08:34N 49°17' W 000°15'0 0.0
2017-Mar-15 07:34N 49°17' W 000°15'0 0.0
2017-Mar-15 06:33N 49°17' W 000°15'10 9.6
2017-Mar-15 05:33N 49°27' W 000°17'1514.8
2017-Mar-15 04:33N 49°40' W 000°26'1212.3
2017-Mar-15 03:33N 49°52' W 000°32'4813.9
2017-Mar-15 00:06N 50°37' W 000°58'814.1
2017-Mar-14 23:33N 50°44' W 001°04'5 4.9
2017-Mar-14 22:34N 50°49' W 001°06'0 0.0
2017-Mar-14 21:33N 50°49' W 001°06'5 4.6
2017-Mar-14 20:34N 50°44' W 001°04'4618.4
2017-Mar-14 18:05N 50°02' W 000°36'1119.7
2017-Mar-14 17:33N 49°52' W 000°31'2019.6
2017-Mar-14 16:34N 49°34' W 000°21'1717.0
2017-Mar-14 15:33N 49°17' W 000°15'0 0.0
2017-Mar-14 14:33N 49°17' W 000°15'4 4.2
2017-Mar-14 13:33N 49°22' W 000°15'1919.1
2017-Mar-14 12:34N 49°40' W 000°22'1919.4
2017-Mar-14 11:33N 49°59' W 000°31'4219.5
2017-Mar-14 09:24N 50°37' W 000°58'1315.3
2017-Mar-14 08:34N 50°48' W 001°07'1 0.6
2017-Mar-14 07:33N 50°49' W 001°06'0 0.1
2017-Mar-14 06:33N 50°49' W 001°06'5112.5
2017-Mar-14 02:30N 50°02' W 000°34'1212.9
2017-Mar-14 01:33N 49°51' W 000°28'1312.7
2017-Mar-14 00:33N 49°38' W 000°23'1212.1
2017-Mar-13 23:33N 49°27' W 000°17'10 9.8
2017-Mar-13 22:33N 49°17' W 000°15'0 0.0
2017-Mar-13 21:33N 49°17' W 000°15'0 0.0
2017-Mar-13 20:33N 49°17' W 000°15'1110.5
2017-Mar-13 19:33N 49°28' W 000°15'1919.3
2017-Mar-13 18:33N 49°45' W 000°28'2018.7
2017-Mar-13 17:29N 50°04' W 000°40'1718.3
2017-Mar-13 16:33N 50°19' W 000°50'2018.5
2017-Mar-13 15:29N 50°39' W 000°58'1112.0
2017-Mar-13 14:33N 50°49' W 001°06'0 0.0
2017-Mar-13 13:33N 50°49' W 001°06'5 4.5
2017-Mar-13 12:34N 50°44' W 001°04'  
Track history (hours):
 
Tides and Currents Weather Stations Pressure Air Temp Water Temp Dewpoint Dewpoint Depression Visibility Wind Speed Wind Dir Waves Ship Positions

Mont Saint Michel

Last reported at 2017-Mar-23 10:03 UTC. Time now 2017-Mar-23 12:17 UTC.
Position N 50°04' W 000°37'.

Length 173 m; beam 29 m.

Type: Ship. MMSI: 227023100.

Date/timePositionNaut miles runAvg speedWind from/ knotsBaromVisibWave heightAir tempDewpointWater temp
2017-Mar-23 10:03N 50°04' W 000°37'1121.2
2017-Mar-23 09:33N 49°55' W 000°30'2120.7
2017-Mar-23 08:33N 49°35' W 000°21'1818.1
2017-Mar-23 07:34N 49°17' W 000°15'0 0.0
2017-Mar-23 06:33N 49°17' W 000°15'0 0.1
2017-Mar-23 05:34N 49°17' W 000°15'1514.7
2017-Mar-23 04:34N 49°32' W 000°20'1616.2
2017-Mar-23 03:33N 49°47' W 000°28'5714.2
2017-Mar-22 23:33N 50°40' W 000°58'10 9.9
2017-Mar-22 22:34N 50°49' W 001°06'0 0.1
2017-Mar-22 21:33N 50°49' W 001°06'0 0.0
2017-Mar-22 20:33N 50°49' W 001°06'0 0.0
2017-Mar-22 19:33N 50°49' W 001°06'4 4.4
2017-Mar-22 18:34N 50°44' W 001°04'5217.5
2017-Mar-22 15:33N 49°57' W 000°31'1818.2
2017-Mar-22 14:34N 49°39' W 000°23'2019.6
2017-Mar-22 13:33N 49°20' W 000°14'3 3.1
2017-Mar-22 12:33N 49°17' W 000°15'0 0.0
2017-Mar-22 11:33N 49°17' W 000°15'0 0.0
2017-Mar-22 10:33N 49°17' W 000°15'0 0.0
2017-Mar-22 09:33N 49°17' W 000°15'0 0.0
2017-Mar-22 08:33N 49°17' W 000°15'0 0.0
2017-Mar-22 07:33N 49°17' W 000°15'0 0.0
2017-Mar-22 06:33N 49°17' W 000°15'10 9.6
2017-Mar-22 05:33N 49°27' W 000°17'1313.4
2017-Mar-22 04:34N 49°40' W 000°24'1413.5
2017-Mar-22 03:33N 49°52' W 000°32'4813.6
2017-Mar-22 00:04N 50°37' W 000°57'714.0
2017-Mar-21 23:33N 50°43' W 001°01'6 6.1
2017-Mar-21 22:33N 50°49' W 001°06'0 0.0
2017-Mar-21 21:33N 50°49' W 001°06'4 3.9
2017-Mar-21 20:34N 50°45' W 001°05'4517.9
2017-Mar-21 18:03N 50°04' W 000°37'919.0
2017-Mar-21 17:33N 49°55' W 000°33'1919.0
2017-Mar-21 16:33N 49°37' W 000°23'1818.3
2017-Mar-21 15:33N 49°19' W 000°14'2 2.0
2017-Mar-21 14:34N 49°17' W 000°15'1 0.8
2017-Mar-21 13:33N 49°18' W 000°15'1918.7
2017-Mar-21 12:33N 49°36' W 000°23'6419.7
2017-Mar-21 09:19N 50°36' W 000°57'1115.2
2017-Mar-21 08:34N 50°46' W 001°05'3 2.7
2017-Mar-21 07:33N 50°49' W 001°06'0 0.0
2017-Mar-21 06:33N 50°49' W 001°06'5012.4
2017-Mar-21 02:33N 50°02' W 000°39'1010.3
2017-Mar-21 01:33N 49°52' W 000°34'1110.9
2017-Mar-21 00:33N 49°42' W 000°27'1111.4
2017-Mar-20 23:33N 49°32' W 000°22'1110.6
2017-Mar-20 22:33N 49°22' W 000°15'5 4.6
2017-Mar-20 21:33N 49°17' W 000°15'0 0.0
2017-Mar-20 20:33N 49°17' W 000°15'1110.8
2017-Mar-20 19:33N 49°28' W 000°15'1919.0
2017-Mar-20 18:33N 49°46' W 000°26'5618.6
2017-Mar-20 15:32N 50°38' W 000°59'1211.9
2017-Mar-20 14:33N 50°49' W 001°06'0 0.0
2017-Mar-20 13:33N 50°49' W 001°06'3 3.4
2017-Mar-20 12:34N 50°45' W 001°05'5618.8
2017-Mar-20 09:33N 49°52' W 000°38'2120.6
2017-Mar-20 08:34N 49°33' W 000°24'1717.1
2017-Mar-20 07:33N 49°17' W 000°15'0 0.0
2017-Mar-20 06:34N 49°17' W 000°15'0 0.1
2017-Mar-20 05:34N 49°17' W 000°15'1413.7
2017-Mar-20 04:34N 49°31' W 000°19'1413.9
2017-Mar-20 03:33N 49°44' W 000°23'1413.6
2017-Mar-20 02:33N 49°58' W 000°25'5016.6
2017-Mar-19 23:33N 50°43' W 000°59'7 7.3
2017-Mar-19 22:33N 50°49' W 001°06'0 0.0
2017-Mar-19 21:33N 50°49' W 001°06'6 6.5
2017-Mar-19 20:33N 50°43' W 001°01'3816.9
2017-Mar-19 18:17N 50°07' W 000°42'1419.0
2017-Mar-19 17:34N 49°54' W 000°34'1919.3
2017-Mar-19 16:34N 49°36' W 000°23'1818.4
2017-Mar-19 15:33N 49°18' W 000°15'1 1.1
2017-Mar-19 14:33N 49°17' W 000°15'2 1.9
2017-Mar-19 13:33N 49°19' W 000°15'1918.8
2017-Mar-19 12:33N 49°37' W 000°23'1918.9
2017-Mar-19 11:33N 49°54' W 000°35'4319.7
2017-Mar-19 09:23N 50°35' W 000°56'1416.9
2017-Mar-19 08:34N 50°47' W 001°07'2 1.5
2017-Mar-19 07:34N 50°49' W 001°06'0 0.1
2017-Mar-19 06:33N 50°49' W 001°06'5914.3
2017-Mar-19 02:27N 49°50' W 001°04'1412.3
2017-Mar-19 01:20N 49°40' W 000°50'1012.4
2017-Mar-19 00:34N 49°34' W 000°38'9 9.4
2017-Mar-18 23:34N 49°28' W 000°27'9 9.4
2017-Mar-18 22:34N 49°22' W 000°16'5 4.6
2017-Mar-18 21:33N 49°17' W 000°15'0 0.0
2017-Mar-18 20:33N 49°17' W 000°15'1110.6
2017-Mar-18 19:34N 49°28' W 000°16'2019.6
2017-Mar-18 18:34N 49°46' W 000°28'5418.0
2017-Mar-18 15:33N 50°36' W 000°58'1313.3
2017-Mar-18 14:33N 50°49' W 001°06'0 0.0
2017-Mar-18 13:33N 50°49' W 001°06'7 7.5
2017-Mar-18 12:34N 50°42' W 001°01'4218.9
2017-Mar-18 10:19N 50°02' W 000°39'1417.8
2017-Mar-18 09:33N 49°49' W 000°33'1918.5
2017-Mar-18 08:33N 49°32' W 000°23'1515.3
2017-Mar-18 07:33N 49°17' W 000°15'0 0.0
2017-Mar-18 06:33N 49°17' W 000°15'0 0.1
2017-Mar-18 05:33N 49°17' W 000°15'1514.8
2017-Mar-18 04:33N 49°32' W 000°18'1515.2
2017-Mar-18 03:33N 49°47' W 000°19'1414.4
2017-Mar-18 02:33N 50°01' W 000°23'4017.5
2017-Mar-18 00:16N 50°35' W 000°56'1116.0
2017-Mar-17 23:33N 50°45' W 001°05'4 3.7
2017-Mar-17 22:33N 50°49' W 001°06'0 0.0
2017-Mar-17 21:33N 50°49' W 001°06'7 7.4
2017-Mar-17 20:33N 50°43' W 000°59'5217.3
2017-Mar-17 17:33N 49°54' W 000°31'1919.5
2017-Mar-17 16:33N 49°36' W 000°21'1818.3
2017-Mar-17 15:33N 49°18' W 000°15'0 0.5
2017-Mar-17 14:33N 49°17' W 000°15'4 4.3
2017-Mar-17 13:33N 49°22' W 000°14'2121.5
2017-Mar-17 12:33N 49°42' W 000°26'6421.2
2017-Mar-17 09:33N 50°42' W 000°58'8 8.3
2017-Mar-17 08:33N 50°49' W 001°06'0 0.0
2017-Mar-17 07:33N 50°49' W 001°06'1 0.9
2017-Mar-17 06:33N 50°48' W 001°07'4911.8
2017-Mar-17 02:27N 50°04' W 000°37'1011.1
2017-Mar-17 01:33N 49°55' W 000°31'1111.3
2017-Mar-17 00:33N 49°44' W 000°25'1111.0
2017-Mar-16 23:33N 49°33' W 000°21'1111.0
2017-Mar-16 22:33N 49°23' W 000°15'6 5.5
2017-Mar-16 21:33N 49°17' W 000°15'0 0.0
2017-Mar-16 20:33N 49°17' W 000°15'1111.1
2017-Mar-16 19:34N 49°28' W 000°16'2020.1
2017-Mar-16 18:33N 49°47' W 000°27'2019.6
2017-Mar-16 17:34N 50°05' W 000°40'3919.7
2017-Mar-16 15:34N 50°42' W 001°01'7 7.2
2017-Mar-16 14:33N 50°49' W 001°06'0 0.0
2017-Mar-16 13:33N 50°49' W 001°06'5 5.2
2017-Mar-16 12:33N 50°44' W 001°03'2919.5
2017-Mar-16 11:05N 50°18' W 000°44'1120.4
2017-Mar-16 10:33N 50°07' W 000°40'2019.8
2017-Mar-16 09:33N 49°48' W 000°32'2019.6
2017-Mar-16 08:33N 49°30' W 000°21'1313.3
2017-Mar-16 07:33N 49°17' W 000°15'0 0.0
2017-Mar-16 06:34N 49°17' W 000°15'0 0.1
2017-Mar-16 05:33N 49°17' W 000°15'1413.7
2017-Mar-16 04:33N 49°31' W 000°20'1514.8
2017-Mar-16 03:33N 49°44' W 000°29'1914.7
2017-Mar-16 02:15N 50°02' W 000°41'4115.3
2017-Mar-15 23:34N 50°42' W 000°58'9 8.8
2017-Mar-15 22:34N 50°49' W 001°06'0 0.3
2017-Mar-15 21:33N 50°49' W 001°06'0 0.0
2017-Mar-15 20:34N 50°49' W 001°06'0 0.0
2017-Mar-15 19:34N 50°49' W 001°06'3 2.9
2017-Mar-15 18:33N 50°46' W 001°05'3718.2
2017-Mar-15 16:30N 50°11' W 000°44'1717.3
2017-Mar-15 15:33N 49°55' W 000°35'1717.5
2017-Mar-15 14:33N 49°39' W 000°26'1716.8
2017-Mar-15 13:33N 49°24' W 000°16'6 6.4
2017-Mar-15 12:33N 49°17' W 000°15'0 0.0
2017-Mar-15 11:34N 49°17' W 000°15'0 0.0
2017-Mar-15 10:34N 49°17' W 000°15'0 0.0
2017-Mar-15 09:34N 49°17' W 000°15'0 0.0
2017-Mar-15 08:34N 49°17' W 000°15'0 0.0
2017-Mar-15 07:34N 49°17' W 000°15'0 0.0
2017-Mar-15 06:33N 49°17' W 000°15'10 9.6
2017-Mar-15 05:33N 49°27' W 000°17'1514.8
2017-Mar-15 04:33N 49°40' W 000°26'1212.3
2017-Mar-15 03:33N 49°52' W 000°32'4813.9
2017-Mar-15 00:06N 50°37' W 000°58'814.1
2017-Mar-14 23:33N 50°44' W 001°04'5 4.9
2017-Mar-14 22:34N 50°49' W 001°06'0 0.0
2017-Mar-14 21:33N 50°49' W 001°06'5 4.6
2017-Mar-14 20:34N 50°44' W 001°04'4618.4
2017-Mar-14 18:05N 50°02' W 000°36'1119.7
2017-Mar-14 17:33N 49°52' W 000°31'2019.6
2017-Mar-14 16:34N 49°34' W 000°21'1717.0
2017-Mar-14 15:33N 49°17' W 000°15'0 0.0
2017-Mar-14 14:33N 49°17' W 000°15'4 4.2
2017-Mar-14 13:33N 49°22' W 000°15'1919.1
2017-Mar-14 12:34N 49°40' W 000°22'1919.4
2017-Mar-14 11:33N 49°59' W 000°31'4219.5
2017-Mar-14 09:24N 50°37' W 000°58'1315.3
2017-Mar-14 08:34N 50°48' W 001°07'1 0.6
2017-Mar-14 07:33N 50°49' W 001°06'0 0.1
2017-Mar-14 06:33N 50°49' W 001°06'5112.5
2017-Mar-14 02:30N 50°02' W 000°34'1212.9
2017-Mar-14 01:33N 49°51' W 000°28'1312.7
2017-Mar-14 00:33N 49°38' W 000°23'1212.1
2017-Mar-13 23:33N 49°27' W 000°17'10 9.8
2017-Mar-13 22:33N 49°17' W 000°15'0 0.0
2017-Mar-13 21:33N 49°17' W 000°15'0 0.0
2017-Mar-13 20:33N 49°17' W 000°15'1110.5
2017-Mar-13 19:33N 49°28' W 000°15'1919.3
2017-Mar-13 18:33N 49°45' W 000°28'2018.7
2017-Mar-13 17:29N 50°04' W 000°40'1718.3
2017-Mar-13 16:33N 50°19' W 000°50'2018.5
2017-Mar-13 15:29N 50°39' W 000°58'1112.0
2017-Mar-13 14:33N 50°49' W 001°06'0 0.0
2017-Mar-13 13:33N 50°49' W 001°06'5 4.5
2017-Mar-13 12:34N 50°44' W 001°04'  

Dump ship's entire track history